sensor_id;sensor_type;location;lat;lon;timestamp;temperature;humidity
5520;DHT22;2782;52.362;10.012;2024-02-26T00:00:53;20.50;62.40
5520;DHT22;2782;52.362;10.012;2024-02-26T00:01:54;20.50;62.40
5520;DHT22;2782;52.362;10.012;2024-02-26T00:02:55;20.50;62.40
5520;DHT22;2782;52.362;10.012;2024-02-26T00:03:56;20.50;62.40
5520;DHT22;2782;52.362;10.012;2024-02-26T00:04:59;20.50;62.40
5520;DHT22;2782;52.362;10.012;2024-02-26T00:06:00;20.50;62.40
5520;DHT22;2782;52.362;10.012;2024-02-26T00:07:02;20.50;62.40
5520;DHT22;2782;52.362;10.012;2024-02-26T00:08:03;20.50;62.40
5520;DHT22;2782;52.362;10.012;2024-02-26T00:09:05;20.50;62.40
5520;DHT22;2782;52.362;10.012;2024-02-26T00:10:07;20.50;62.30
5520;DHT22;2782;52.362;10.012;2024-02-26T00:11:09;20.50;62.30
5520;DHT22;2782;52.362;10.012;2024-02-26T00:12:11;20.50;62.30
5520;DHT22;2782;52.362;10.012;2024-02-26T00:13:13;20.50;62.30
5520;DHT22;2782;52.362;10.012;2024-02-26T00:14:14;20.50;62.30
5520;DHT22;2782;52.362;10.012;2024-02-26T00:15:16;20.50;62.30
5520;DHT22;2782;52.362;10.012;2024-02-26T00:16:17;20.50;62.30
5520;DHT22;2782;52.362;10.012;2024-02-26T00:17:18;20.50;62.30
5520;DHT22;2782;52.362;10.012;2024-02-26T00:18:19;20.50;62.30
5520;DHT22;2782;52.362;10.012;2024-02-26T00:19:21;20.50;62.30
5520;DHT22;2782;52.362;10.012;2024-02-26T00:20:21;20.50;62.30
5520;DHT22;2782;52.362;10.012;2024-02-26T00:21:23;20.50;62.30
5520;DHT22;2782;52.362;10.012;2024-02-26T00:22:23;20.50;62.30
5520;DHT22;2782;52.362;10.012;2024-02-26T00:23:25;20.50;62.30
5520;DHT22;2782;52.362;10.012;2024-02-26T00:24:26;20.50;62.30
5520;DHT22;2782;52.362;10.012;2024-02-26T00:25:26;20.50;62.30
5520;DHT22;2782;52.362;10.012;2024-02-26T00:26:28;20.50;62.30
5520;DHT22;2782;52.362;10.012;2024-02-26T00:27:30;20.40;62.20
5520;DHT22;2782;52.362;10.012;2024-02-26T00:28:32;20.40;62.20
5520;DHT22;2782;52.362;10.012;2024-02-26T00:29:32;20.40;62.20
5520;DHT22;2782;52.362;10.012;2024-02-26T00:30:34;20.40;62.20
5520;DHT22;2782;52.362;10.012;2024-02-26T00:31:36;20.40;62.30
5520;DHT22;2782;52.362;10.012;2024-02-26T00:32:37;20.40;62.30
5520;DHT22;2782;52.362;10.012;2024-02-26T00:33:38;20.40;62.20
5520;DHT22;2782;52.362;10.012;2024-02-26T00:34:39;20.40;62.20
5520;DHT22;2782;52.362;10.012;2024-02-26T00:35:41;20.40;62.20
5520;DHT22;2782;52.362;10.012;2024-02-26T00:36:41;20.40;62.20
5520;DHT22;2782;52.362;10.012;2024-02-26T00:37:43;20.40;62.30
5520;DHT22;2782;52.362;10.012;2024-02-26T00:38:44;20.40;62.30
5520;DHT22;2782;52.362;10.012;2024-02-26T00:39:50;20.40;62.30
5520;DHT22;2782;52.362;10.012;2024-02-26T00:40:53;20.40;62.30
5520;DHT22;2782;52.362;10.012;2024-02-26T00:41:55;20.40;62.30
5520;DHT22;2782;52.362;10.012;2024-02-26T00:42:57;20.40;62.30
5520;DHT22;2782;52.362;10.012;2024-02-26T00:43:58;20.40;62.30
5520;DHT22;2782;52.362;10.012;2024-02-26T00:45:00;20.40;62.30
5520;DHT22;2782;52.362;10.012;2024-02-26T00:46:01;20.40;62.30
5520;DHT22;2782;52.362;10.012;2024-02-26T00:47:03;20.30;62.20
5520;DHT22;2782;52.362;10.012;2024-02-26T00:48:04;20.30;62.20
5520;DHT22;2782;52.362;10.012;2024-02-26T00:49:06;20.30;62.20
5520;DHT22;2782;52.362;10.012;2024-02-26T00:50:07;20.30;62.30
5520;DHT22;2782;52.362;10.012;2024-02-26T00:51:09;20.30;62.20
5520;DHT22;2782;52.362;10.012;2024-02-26T00:52:10;20.30;62.30
5520;DHT22;2782;52.362;10.012;2024-02-26T00:53:11;20.30;62.30
5520;DHT22;2782;52.362;10.012;2024-02-26T00:54:12;20.30;62.30
5520;DHT22;2782;52.362;10.012;2024-02-26T00:55:14;20.30;62.30
5520;DHT22;2782;52.362;10.012;2024-02-26T00:56:14;20.30;62.50
5520;DHT22;2782;52.362;10.012;2024-02-26T00:57:15;20.30;62.40
5520;DHT22;2782;52.362;10.012;2024-02-26T00:58:18;20.30;62.40
5520;DHT22;2782;52.362;10.012;2024-02-26T00:59:19;20.20;62.30
5520;DHT22;2782;52.362;10.012;2024-02-26T01:00:21;20.20;62.30
5520;DHT22;2782;52.362;10.012;2024-02-26T01:01:22;20.20;62.30
5520;DHT22;2782;52.362;10.012;2024-02-26T01:02:23;20.20;62.30
5520;DHT22;2782;52.362;10.012;2024-02-26T01:03:24;20.20;62.30
5520;DHT22;2782;52.362;10.012;2024-02-26T01:04:25;20.20;62.30
5520;DHT22;2782;52.362;10.012;2024-02-26T01:05:26;20.20;62.30
5520;DHT22;2782;52.362;10.012;2024-02-26T01:06:28;20.20;62.30
5520;DHT22;2782;52.362;10.012;2024-02-26T01:07:28;20.20;62.40
5520;DHT22;2782;52.362;10.012;2024-02-26T01:08:34;20.20;62.40
5520;DHT22;2782;52.362;10.012;2024-02-26T01:09:36;20.20;62.40
5520;DHT22;2782;52.362;10.012;2024-02-26T01:10:37;20.20;62.40
5520;DHT22;2782;52.362;10.012;2024-02-26T01:11:38;20.20;62.40
5520;DHT22;2782;52.362;10.012;2024-02-26T01:12:40;20.20;62.40
5520;DHT22;2782;52.362;10.012;2024-02-26T01:13:42;20.20;62.50
5520;DHT22;2782;52.362;10.012;2024-02-26T01:14:43;20.10;62.40
5520;DHT22;2782;52.362;10.012;2024-02-26T01:15:44;20.10;62.50
5520;DHT22;2782;52.362;10.012;2024-02-26T01:16:45;20.10;62.50
5520;DHT22;2782;52.362;10.012;2024-02-26T01:17:46;20.10;62.60
5520;DHT22;2782;52.362;10.012;2024-02-26T01:18:47;20.10;62.70
5520;DHT22;2782;52.362;10.012;2024-02-26T01:19:48;20.10;62.70
5520;DHT22;2782;52.362;10.012;2024-02-26T01:20:49;20.10;62.60
5520;DHT22;2782;52.362;10.012;2024-02-26T01:21:50;20.10;62.60
5520;DHT22;2782;52.362;10.012;2024-02-26T01:22:52;20.10;62.60
5520;DHT22;2782;52.362;10.012;2024-02-26T01:23:52;20.10;62.70
5520;DHT22;2782;52.362;10.012;2024-02-26T01:24:53;20.10;62.70
5520;DHT22;2782;52.362;10.012;2024-02-26T01:25:54;20.10;62.70
5520;DHT22;2782;52.362;10.012;2024-02-26T01:26:55;20.10;62.70
5520;DHT22;2782;52.362;10.012;2024-02-26T01:27:57;20.10;62.80
5520;DHT22;2782;52.362;10.012;2024-02-26T01:28:58;20.10;62.70
5520;DHT22;2782;52.362;10.012;2024-02-26T01:30:01;20.10;62.70
5520;DHT22;2782;52.362;10.012;2024-02-26T01:31:01;20.10;62.70
5520;DHT22;2782;52.362;10.012;2024-02-26T01:32:06;20.10;63.40
5520;DHT22;2782;52.362;10.012;2024-02-26T01:33:07;20.10;62.70
5520;DHT22;2782;52.362;10.012;2024-02-26T01:34:08;20.10;62.70
5520;DHT22;2782;52.362;10.012;2024-02-26T01:35:09;20.10;62.70
5520;DHT22;2782;52.362;10.012;2024-02-26T01:36:12;20.10;62.70
5520;DHT22;2782;52.362;10.012;2024-02-26T01:37:13;20.10;62.70
5520;DHT22;2782;52.362;10.012;2024-02-26T01:38:13;20.10;62.70
5520;DHT22;2782;52.362;10.012;2024-02-26T01:39:15;20.10;62.70
5520;DHT22;2782;52.362;10.012;2024-02-26T01:40:16;20.10;62.70
5520;DHT22;2782;52.362;10.012;2024-02-26T01:41:20;20.10;62.70
5520;DHT22;2782;52.362;10.012;2024-02-26T01:42:20;20.10;62.70
5520;DHT22;2782;52.362;10.012;2024-02-26T01:43:22;20.10;62.70
5520;DHT22;2782;52.362;10.012;2024-02-26T01:44:26;20.10;62.70
5520;DHT22;2782;52.362;10.012;2024-02-26T01:45:28;20.10;62.60
5520;DHT22;2782;52.362;10.012;2024-02-26T01:46:30;20.10;62.70
5520;DHT22;2782;52.362;10.012;2024-02-26T01:47:33;20.10;62.70
5520;DHT22;2782;52.362;10.012;2024-02-26T01:48:34;20.10;62.70
5520;DHT22;2782;52.362;10.012;2024-02-26T01:49:36;20.10;62.60
5520;DHT22;2782;52.362;10.012;2024-02-26T01:50:37;20.10;62.60
5520;DHT22;2782;52.362;10.012;2024-02-26T01:51:39;20.10;62.60
5520;DHT22;2782;52.362;10.012;2024-02-26T01:52:42;20.10;62.60
5520;DHT22;2782;52.362;10.012;2024-02-26T01:53:44;20.10;62.60
5520;DHT22;2782;52.362;10.012;2024-02-26T01:54:45;20.10;62.60
5520;DHT22;2782;52.362;10.012;2024-02-26T01:55:47;20.10;62.70
5520;DHT22;2782;52.362;10.012;2024-02-26T01:56:49;20.10;62.60
5520;DHT22;2782;52.362;10.012;2024-02-26T01:57:51;20.10;62.60
5520;DHT22;2782;52.362;10.012;2024-02-26T01:58:53;20.10;62.60
5520;DHT22;2782;52.362;10.012;2024-02-26T01:59:56;20.10;62.70
5520;DHT22;2782;52.362;10.012;2024-02-26T02:00:57;20.10;62.60
5520;DHT22;2782;52.362;10.012;2024-02-26T02:02:01;20.10;62.60
5520;DHT22;2782;52.362;10.012;2024-02-26T02:03:04;20.10;62.60
5520;DHT22;2782;52.362;10.012;2024-02-26T02:04:06;20.10;62.60
5520;DHT22;2782;52.362;10.012;2024-02-26T02:05:07;20.00;62.50
5520;DHT22;2782;52.362;10.012;2024-02-26T02:06:10;20.10;62.60
5520;DHT22;2782;52.362;10.012;2024-02-26T02:07:12;20.00;62.90
5520;DHT22;2782;52.362;10.012;2024-02-26T02:08:13;20.00;62.50
5520;DHT22;2782;52.362;10.012;2024-02-26T02:09:15;20.00;62.60
5520;DHT22;2782;52.362;10.012;2024-02-26T02:10:16;20.00;62.60
5520;DHT22;2782;52.362;10.012;2024-02-26T02:11:19;20.00;62.50
5520;DHT22;2782;52.362;10.012;2024-02-26T02:12:19;20.00;62.50
5520;DHT22;2782;52.362;10.012;2024-02-26T02:13:21;20.00;62.50
5520;DHT22;2782;52.362;10.012;2024-02-26T02:14:22;20.00;62.50
5520;DHT22;2782;52.362;10.012;2024-02-26T02:15:25;20.00;62.50
5520;DHT22;2782;52.362;10.012;2024-02-26T02:16:25;20.00;62.60
5520;DHT22;2782;52.362;10.012;2024-02-26T02:17:27;20.00;62.50
5520;DHT22;2782;52.362;10.012;2024-02-26T02:18:28;20.00;62.60
5520;DHT22;2782;52.362;10.012;2024-02-26T02:19:30;20.00;62.60
5520;DHT22;2782;52.362;10.012;2024-02-26T02:20:33;20.00;62.60
5520;DHT22;2782;52.362;10.012;2024-02-26T02:21:35;20.00;62.60
5520;DHT22;2782;52.362;10.012;2024-02-26T02:22:35;20.00;62.50
5520;DHT22;2782;52.362;10.012;2024-02-26T02:23:36;20.00;62.60
5520;DHT22;2782;52.362;10.012;2024-02-26T02:24:38;20.00;62.60
5520;DHT22;2782;52.362;10.012;2024-02-26T02:25:38;20.00;62.60
5520;DHT22;2782;52.362;10.012;2024-02-26T02:26:40;19.90;62.50
5520;DHT22;2782;52.362;10.012;2024-02-26T02:27:41;20.00;62.70
5520;DHT22;2782;52.362;10.012;2024-02-26T02:28:44;20.00;62.70
5520;DHT22;2782;52.362;10.012;2024-02-26T02:29:45;19.90;62.60
5520;DHT22;2782;52.362;10.012;2024-02-26T02:30:46;20.00;62.70
5520;DHT22;2782;52.362;10.012;2024-02-26T02:31:48;19.90;62.60
5520;DHT22;2782;52.362;10.012;2024-02-26T02:32:49;19.90;62.60
5520;DHT22;2782;52.362;10.012;2024-02-26T02:33:50;19.90;62.60
5520;DHT22;2782;52.362;10.012;2024-02-26T02:34:52;19.90;62.60
5520;DHT22;2782;52.362;10.012;2024-02-26T02:35:53;19.90;62.60
5520;DHT22;2782;52.362;10.012;2024-02-26T02:36:55;19.90;62.60
5520;DHT22;2782;52.362;10.012;2024-02-26T02:37:57;19.90;62.60
5520;DHT22;2782;52.362;10.012;2024-02-26T02:38:58;19.90;62.70
5520;DHT22;2782;52.362;10.012;2024-02-26T02:39:59;19.90;62.80
5520;DHT22;2782;52.362;10.012;2024-02-26T02:41:00;19.90;62.80
5520;DHT22;2782;52.362;10.012;2024-02-26T02:42:02;19.90;62.70
5520;DHT22;2782;52.362;10.012;2024-02-26T02:43:03;19.90;62.80
5520;DHT22;2782;52.362;10.012;2024-02-26T02:44:05;19.90;62.80
5520;DHT22;2782;52.362;10.012;2024-02-26T02:45:06;19.90;62.80
5520;DHT22;2782;52.362;10.012;2024-02-26T02:46:08;19.90;62.80
5520;DHT22;2782;52.362;10.012;2024-02-26T02:47:08;19.90;62.80
5520;DHT22;2782;52.362;10.012;2024-02-26T02:48:11;19.90;62.80
5520;DHT22;2782;52.362;10.012;2024-02-26T02:49:11;19.90;62.80
5520;DHT22;2782;52.362;10.012;2024-02-26T02:50:12;19.90;62.90
5520;DHT22;2782;52.362;10.012;2024-02-26T02:51:15;19.90;62.90
5520;DHT22;2782;52.362;10.012;2024-02-26T02:52:16;19.90;62.90
5520;DHT22;2782;52.362;10.012;2024-02-26T02:53:16;19.90;62.90
5520;DHT22;2782;52.362;10.012;2024-02-26T02:54:18;19.90;62.90
5520;DHT22;2782;52.362;10.012;2024-02-26T02:55:19;19.90;62.90
5520;DHT22;2782;52.362;10.012;2024-02-26T02:56:21;19.90;62.90
5520;DHT22;2782;52.362;10.012;2024-02-26T02:57:22;19.90;62.90
5520;DHT22;2782;52.362;10.012;2024-02-26T02:58:23;19.90;63.60
5520;DHT22;2782;52.362;10.012;2024-02-26T02:59:24;19.90;62.90
5520;DHT22;2782;52.362;10.012;2024-02-26T03:00:26;19.90;62.90
5520;DHT22;2782;52.362;10.012;2024-02-26T03:01:27;19.90;62.90
5520;DHT22;2782;52.362;10.012;2024-02-26T03:02:28;19.90;62.90
5520;DHT22;2782;52.362;10.012;2024-02-26T03:03:30;19.90;62.90
5520;DHT22;2782;52.362;10.012;2024-02-26T03:04:31;19.90;62.90
5520;DHT22;2782;52.362;10.012;2024-02-26T03:05:32;19.90;62.90
5520;DHT22;2782;52.362;10.012;2024-02-26T03:06:35;19.90;62.90
5520;DHT22;2782;52.362;10.012;2024-02-26T03:07:35;19.90;62.90
5520;DHT22;2782;52.362;10.012;2024-02-26T03:08:36;19.90;62.90
5520;DHT22;2782;52.362;10.012;2024-02-26T03:09:39;19.90;62.90
5520;DHT22;2782;52.362;10.012;2024-02-26T03:10:41;19.90;62.90
5520;DHT22;2782;52.362;10.012;2024-02-26T03:11:43;19.90;62.90
5520;DHT22;2782;52.362;10.012;2024-02-26T03:12:45;19.90;62.90
5520;DHT22;2782;52.362;10.012;2024-02-26T03:13:46;19.90;62.80
5520;DHT22;2782;52.362;10.012;2024-02-26T03:14:48;19.90;62.80
5520;DHT22;2782;52.362;10.012;2024-02-26T03:15:48;19.90;62.90
5520;DHT22;2782;52.362;10.012;2024-02-26T03:16:52;19.90;62.80
5520;DHT22;2782;52.362;10.012;2024-02-26T03:17:53;19.90;62.80
5520;DHT22;2782;52.362;10.012;2024-02-26T03:18:55;19.90;62.80
5520;DHT22;2782;52.362;10.012;2024-02-26T03:19:56;19.90;62.80
5520;DHT22;2782;52.362;10.012;2024-02-26T03:20:57;19.90;62.80
5520;DHT22;2782;52.362;10.012;2024-02-26T03:21:59;19.90;62.80
5520;DHT22;2782;52.362;10.012;2024-02-26T03:23:01;19.90;62.80
5520;DHT22;2782;52.362;10.012;2024-02-26T03:24:01;19.90;63.60
5520;DHT22;2782;52.362;10.012;2024-02-26T03:25:03;19.90;62.80
5520;DHT22;2782;52.362;10.012;2024-02-26T03:26:04;19.90;62.80
5520;DHT22;2782;52.362;10.012;2024-02-26T03:27:06;19.90;62.80
5520;DHT22;2782;52.362;10.012;2024-02-26T03:28:09;19.90;62.80
5520;DHT22;2782;52.362;10.012;2024-02-26T03:29:10;19.80;62.70
5520;DHT22;2782;52.362;10.012;2024-02-26T03:30:12;19.90;62.80
5520;DHT22;2782;52.362;10.012;2024-02-26T03:31:12;19.90;62.80
5520;DHT22;2782;52.362;10.012;2024-02-26T03:32:14;19.90;62.80
5520;DHT22;2782;52.362;10.012;2024-02-26T03:33:15;19.80;62.70
5520;DHT22;2782;52.362;10.012;2024-02-26T03:34:16;19.80;62.70
5520;DHT22;2782;52.362;10.012;2024-02-26T03:35:19;19.80;62.70
5520;DHT22;2782;52.362;10.012;2024-02-26T03:36:20;19.80;62.70
5520;DHT22;2782;52.362;10.012;2024-02-26T03:37:23;19.80;62.70
5520;DHT22;2782;52.362;10.012;2024-02-26T03:38:25;19.80;62.70
5520;DHT22;2782;52.362;10.012;2024-02-26T03:39:25;19.80;62.70
5520;DHT22;2782;52.362;10.012;2024-02-26T03:40:27;19.80;62.70
5520;DHT22;2782;52.362;10.012;2024-02-26T03:41:28;19.80;62.80
5520;DHT22;2782;52.362;10.012;2024-02-26T03:42:29;19.80;62.80
5520;DHT22;2782;52.362;10.012;2024-02-26T03:43:30;19.80;62.80
5520;DHT22;2782;52.362;10.012;2024-02-26T03:44:30;19.80;62.80
5520;DHT22;2782;52.362;10.012;2024-02-26T03:45:32;19.80;62.80
5520;DHT22;2782;52.362;10.012;2024-02-26T03:46:33;19.80;62.80
5520;DHT22;2782;52.362;10.012;2024-02-26T03:47:34;19.80;62.90
5520;DHT22;2782;52.362;10.012;2024-02-26T03:48:35;19.80;62.80
5520;DHT22;2782;52.362;10.012;2024-02-26T03:49:36;19.80;62.90
5520;DHT22;2782;52.362;10.012;2024-02-26T03:50:37;19.80;62.90
5520;DHT22;2782;52.362;10.012;2024-02-26T03:51:39;19.80;62.90
5520;DHT22;2782;52.362;10.012;2024-02-26T03:52:41;19.80;62.90
5520;DHT22;2782;52.362;10.012;2024-02-26T03:53:43;19.80;62.90
5520;DHT22;2782;52.362;10.012;2024-02-26T03:54:43;19.80;62.90
5520;DHT22;2782;52.362;10.012;2024-02-26T03:55:45;19.80;62.90
5520;DHT22;2782;52.362;10.012;2024-02-26T03:56:46;19.80;63.00
5520;DHT22;2782;52.362;10.012;2024-02-26T03:57:48;19.80;63.00
5520;DHT22;2782;52.362;10.012;2024-02-26T03:58:48;19.80;63.00
5520;DHT22;2782;52.362;10.012;2024-02-26T03:59:49;19.80;63.00
5520;DHT22;2782;52.362;10.012;2024-02-26T04:00:52;19.70;62.90
5520;DHT22;2782;52.362;10.012;2024-02-26T04:01:53;19.80;63.00
5520;DHT22;2782;52.362;10.012;2024-02-26T04:02:54;19.80;63.00
5520;DHT22;2782;52.362;10.012;2024-02-26T04:03:55;19.80;63.00
5520;DHT22;2782;52.362;10.012;2024-02-26T04:04:57;19.80;63.00
5520;DHT22;2782;52.362;10.012;2024-02-26T04:05:59;19.80;63.00
5520;DHT22;2782;52.362;10.012;2024-02-26T04:07:01;19.80;63.00
5520;DHT22;2782;52.362;10.012;2024-02-26T04:08:04;19.80;63.00
5520;DHT22;2782;52.362;10.012;2024-02-26T04:09:07;19.70;62.90
5520;DHT22;2782;52.362;10.012;2024-02-26T04:10:11;19.70;62.90
5520;DHT22;2782;52.362;10.012;2024-02-26T04:11:12;19.80;63.00
5520;DHT22;2782;52.362;10.012;2024-02-26T04:12:13;19.80;63.00
5520;DHT22;2782;52.362;10.012;2024-02-26T04:13:14;19.80;63.00
5520;DHT22;2782;52.362;10.012;2024-02-26T04:14:16;19.80;63.00
5520;DHT22;2782;52.362;10.012;2024-02-26T04:15:17;19.80;63.00
5520;DHT22;2782;52.362;10.012;2024-02-26T04:16:18;19.80;63.00
5520;DHT22;2782;52.362;10.012;2024-02-26T04:17:19;19.80;63.00
5520;DHT22;2782;52.362;10.012;2024-02-26T04:18:19;19.80;63.00
5520;DHT22;2782;52.362;10.012;2024-02-26T04:19:21;19.80;63.00
5520;DHT22;2782;52.362;10.012;2024-02-26T04:20:22;19.80;63.00
5520;DHT22;2782;52.362;10.012;2024-02-26T04:21:23;19.80;63.00
5520;DHT22;2782;52.362;10.012;2024-02-26T04:22:24;19.80;63.00
5520;DHT22;2782;52.362;10.012;2024-02-26T04:23:27;19.80;62.90
5520;DHT22;2782;52.362;10.012;2024-02-26T04:24:27;19.80;62.90
5520;DHT22;2782;52.362;10.012;2024-02-26T04:25:29;19.80;62.90
5520;DHT22;2782;52.362;10.012;2024-02-26T04:26:30;19.80;62.90
5520;DHT22;2782;52.362;10.012;2024-02-26T04:27:32;19.80;62.90
5520;DHT22;2782;52.362;10.012;2024-02-26T04:28:32;19.80;62.90
5520;DHT22;2782;52.362;10.012;2024-02-26T04:29:34;19.80;62.90
5520;DHT22;2782;52.362;10.012;2024-02-26T04:30:34;19.80;62.90
5520;DHT22;2782;52.362;10.012;2024-02-26T04:31:37;19.80;62.90
5520;DHT22;2782;52.362;10.012;2024-02-26T04:32:37;19.70;62.80
5520;DHT22;2782;52.362;10.012;2024-02-26T04:33:39;19.70;62.80
5520;DHT22;2782;52.362;10.012;2024-02-26T04:34:40;19.70;62.80
5520;DHT22;2782;52.362;10.012;2024-02-26T04:35:41;19.70;62.80
5520;DHT22;2782;52.362;10.012;2024-02-26T04:36:42;19.70;62.80
5520;DHT22;2782;52.362;10.012;2024-02-26T04:37:44;19.70;62.80
5520;DHT22;2782;52.362;10.012;2024-02-26T04:38:46;19.70;62.80
5520;DHT22;2782;52.362;10.012;2024-02-26T04:39:47;19.70;62.80
5520;DHT22;2782;52.362;10.012;2024-02-26T04:40:48;19.70;62.70
5520;DHT22;2782;52.362;10.012;2024-02-26T04:41:50;19.70;62.70
5520;DHT22;2782;52.362;10.012;2024-02-26T04:42:50;19.70;62.80
5520;DHT22;2782;52.362;10.012;2024-02-26T04:43:51;19.70;62.70
5520;DHT22;2782;52.362;10.012;2024-02-26T04:44:54;19.70;62.70
5520;DHT22;2782;52.362;10.012;2024-02-26T04:45:54;19.70;62.70
5520;DHT22;2782;52.362;10.012;2024-02-26T04:46:57;19.70;62.70
5520;DHT22;2782;52.362;10.012;2024-02-26T04:47:58;19.70;62.70
5520;DHT22;2782;52.362;10.012;2024-02-26T04:48:59;19.70;62.70
5520;DHT22;2782;52.362;10.012;2024-02-26T04:50:00;19.70;62.70
5520;DHT22;2782;52.362;10.012;2024-02-26T04:51:02;19.70;62.70
5520;DHT22;2782;52.362;10.012;2024-02-26T04:52:04;19.70;62.70
5520;DHT22;2782;52.362;10.012;2024-02-26T04:53:06;19.70;62.70
5520;DHT22;2782;52.362;10.012;2024-02-26T04:54:08;19.70;62.70
5520;DHT22;2782;52.362;10.012;2024-02-26T04:55:09;19.70;62.70
5520;DHT22;2782;52.362;10.012;2024-02-26T04:56:10;19.60;62.60
5520;DHT22;2782;52.362;10.012;2024-02-26T04:57:11;19.70;62.70
5520;DHT22;2782;52.362;10.012;2024-02-26T04:58:12;19.70;62.80
5520;DHT22;2782;52.362;10.012;2024-02-26T04:59:14;19.60;62.70
5520;DHT22;2782;52.362;10.012;2024-02-26T05:00:15;19.70;62.80
5520;DHT22;2782;52.362;10.012;2024-02-26T05:01:16;19.60;62.70
5520;DHT22;2782;52.362;10.012;2024-02-26T05:02:17;19.60;62.70
5520;DHT22;2782;52.362;10.012;2024-02-26T05:03:18;19.60;62.80
5520;DHT22;2782;52.362;10.012;2024-02-26T05:04:19;19.60;62.70
5520;DHT22;2782;52.362;10.012;2024-02-26T05:05:20;19.60;62.70
5520;DHT22;2782;52.362;10.012;2024-02-26T05:06:22;19.60;62.80
5520;DHT22;2782;52.362;10.012;2024-02-26T05:07:22;19.60;62.80
5520;DHT22;2782;52.362;10.012;2024-02-26T05:08:24;19.60;62.80
5520;DHT22;2782;52.362;10.012;2024-02-26T05:09:26;19.60;62.80
5520;DHT22;2782;52.362;10.012;2024-02-26T05:10:27;19.60;62.80
5520;DHT22;2782;52.362;10.012;2024-02-26T05:11:28;19.60;62.80
5520;DHT22;2782;52.362;10.012;2024-02-26T05:12:30;19.60;62.80
5520;DHT22;2782;52.362;10.012;2024-02-26T05:13:30;19.60;62.80
5520;DHT22;2782;52.362;10.012;2024-02-26T05:14:31;19.60;62.80
5520;DHT22;2782;52.362;10.012;2024-02-26T05:15:32;19.60;62.80
5520;DHT22;2782;52.362;10.012;2024-02-26T05:16:33;19.60;62.80
5520;DHT22;2782;52.362;10.012;2024-02-26T05:17:35;19.60;62.80
5520;DHT22;2782;52.362;10.012;2024-02-26T05:18:35;19.60;62.80
5520;DHT22;2782;52.362;10.012;2024-02-26T05:19:37;19.60;62.80
5520;DHT22;2782;52.362;10.012;2024-02-26T05:20:37;19.60;62.80
5520;DHT22;2782;52.362;10.012;2024-02-26T05:21:39;19.60;62.80
5520;DHT22;2782;52.362;10.012;2024-02-26T05:22:40;19.60;62.80
5520;DHT22;2782;52.362;10.012;2024-02-26T05:23:40;19.60;62.80
5520;DHT22;2782;52.362;10.012;2024-02-26T05:24:45;19.60;62.80
5520;DHT22;2782;52.362;10.012;2024-02-26T05:25:46;19.60;62.80
5520;DHT22;2782;52.362;10.012;2024-02-26T05:26:48;19.60;62.80
5520;DHT22;2782;52.362;10.012;2024-02-26T05:27:49;19.60;62.80
5520;DHT22;2782;52.362;10.012;2024-02-26T05:28:50;19.60;62.80
5520;DHT22;2782;52.362;10.012;2024-02-26T05:29:51;19.60;62.80
5520;DHT22;2782;52.362;10.012;2024-02-26T05:30:54;19.60;62.80
5520;DHT22;2782;52.362;10.012;2024-02-26T05:31:55;19.60;62.80
5520;DHT22;2782;52.362;10.012;2024-02-26T05:32:57;19.60;62.80
5520;DHT22;2782;52.362;10.012;2024-02-26T05:33:57;19.60;62.80
5520;DHT22;2782;52.362;10.012;2024-02-26T05:34:59;19.60;62.80
5520;DHT22;2782;52.362;10.012;2024-02-26T05:35:59;19.60;62.80
5520;DHT22;2782;52.362;10.012;2024-02-26T05:37:04;19.70;62.90
5520;DHT22;2782;52.362;10.012;2024-02-26T05:38:05;19.60;62.80
5520;DHT22;2782;52.362;10.012;2024-02-26T05:39:06;19.60;62.80
5520;DHT22;2782;52.362;10.012;2024-02-26T05:40:10;19.60;62.80
5520;DHT22;2782;52.362;10.012;2024-02-26T05:41:12;19.70;62.80
5520;DHT22;2782;52.362;10.012;2024-02-26T05:42:13;19.60;62.80
5520;DHT22;2782;52.362;10.012;2024-02-26T05:43:15;19.60;62.70
5520;DHT22;2782;52.362;10.012;2024-02-26T05:44:17;19.70;61.90
5520;DHT22;2782;52.362;10.012;2024-02-26T05:45:18;19.60;61.50
5520;DHT22;2782;52.362;10.012;2024-02-26T05:46:19;19.60;61.30
5520;DHT22;2782;52.362;10.012;2024-02-26T05:47:21;19.60;61.70
5520;DHT22;2782;52.362;10.012;2024-02-26T05:48:22;19.60;62.00
5520;DHT22;2782;52.362;10.012;2024-02-26T05:49:23;19.60;62.50
5520;DHT22;2782;52.362;10.012;2024-02-26T05:50:24;19.60;62.70
5520;DHT22;2782;52.362;10.012;2024-02-26T05:51:25;19.60;62.80
5520;DHT22;2782;52.362;10.012;2024-02-26T05:52:26;19.50;62.90
5520;DHT22;2782;52.362;10.012;2024-02-26T05:53:29;19.50;62.90
5520;DHT22;2782;52.362;10.012;2024-02-26T05:54:30;19.50;63.10
5520;DHT22;2782;52.362;10.012;2024-02-26T05:55:33;19.50;63.30
5520;DHT22;2782;52.362;10.012;2024-02-26T05:56:33;19.50;63.40
5520;DHT22;2782;52.362;10.012;2024-02-26T05:57:36;19.60;63.80
5520;DHT22;2782;52.362;10.012;2024-02-26T05:58:36;19.50;63.70
5520;DHT22;2782;52.362;10.012;2024-02-26T05:59:38;19.60;63.90
5520;DHT22;2782;52.362;10.012;2024-02-26T06:00:38;19.60;64.00
5520;DHT22;2782;52.362;10.012;2024-02-26T06:01:40;19.60;64.10
5520;DHT22;2782;52.362;10.012;2024-02-26T06:02:41;19.60;64.10
5520;DHT22;2782;52.362;10.012;2024-02-26T06:03:42;19.50;64.00
5520;DHT22;2782;52.362;10.012;2024-02-26T06:04:43;19.60;64.20
5520;DHT22;2782;52.362;10.012;2024-02-26T06:05:46;19.60;64.20
5520;DHT22;2782;52.362;10.012;2024-02-26T06:06:47;19.60;64.30
5520;DHT22;2782;52.362;10.012;2024-02-26T06:07:49;19.60;64.30
5520;DHT22;2782;52.362;10.012;2024-02-26T06:08:50;19.60;64.30
5520;DHT22;2782;52.362;10.012;2024-02-26T06:09:52;19.60;64.40
5520;DHT22;2782;52.362;10.012;2024-02-26T06:10:54;19.60;64.40
5520;DHT22;2782;52.362;10.012;2024-02-26T06:11:55;19.60;64.50
5520;DHT22;2782;52.362;10.012;2024-02-26T06:12:56;19.60;64.50
5520;DHT22;2782;52.362;10.012;2024-02-26T06:13:57;19.60;64.60
5520;DHT22;2782;52.362;10.012;2024-02-26T06:14:58;19.60;64.70
5520;DHT22;2782;52.362;10.012;2024-02-26T06:16:01;19.60;64.70
5520;DHT22;2782;52.362;10.012;2024-02-26T06:17:02;19.60;64.60
5520;DHT22;2782;52.362;10.012;2024-02-26T06:18:04;19.60;64.70
5520;DHT22;2782;52.362;10.012;2024-02-26T06:19:05;19.60;65.30
5520;DHT22;2782;52.362;10.012;2024-02-26T06:20:07;19.60;64.60
5520;DHT22;2782;52.362;10.012;2024-02-26T06:21:12;19.60;64.60
5520;DHT22;2782;52.362;10.012;2024-02-26T06:22:14;19.60;64.60
5520;DHT22;2782;52.362;10.012;2024-02-26T06:23:15;19.60;64.60
5520;DHT22;2782;52.362;10.012;2024-02-26T06:24:17;19.60;64.60
5520;DHT22;2782;52.362;10.012;2024-02-26T06:25:17;19.60;64.50
5520;DHT22;2782;52.362;10.012;2024-02-26T06:26:20;19.50;64.40
5520;DHT22;2782;52.362;10.012;2024-02-26T06:27:21;19.60;64.50
5520;DHT22;2782;52.362;10.012;2024-02-26T06:28:23;19.50;64.40
5520;DHT22;2782;52.362;10.012;2024-02-26T06:29:23;19.50;64.40
5520;DHT22;2782;52.362;10.012;2024-02-26T06:30:25;19.60;64.50
5520;DHT22;2782;52.362;10.012;2024-02-26T06:31:25;19.60;64.50
5520;DHT22;2782;52.362;10.012;2024-02-26T06:32:28;19.60;64.50
5520;DHT22;2782;52.362;10.012;2024-02-26T06:33:29;19.60;64.50
5520;DHT22;2782;52.362;10.012;2024-02-26T06:34:31;19.50;64.30